Phoenix-Mesa-Gateway Airport
KIWA : rendu visible

Aérodrome :











RETROUVEZ-NOUS SUR...

 
LOGIN :

S'inscrire | Disclaimer

   EN    FR    IT 

 









Légende :    VFR   VFR Marginal   IFR   IFR Intensif   IFR Très Intensif
Visi : 
Plafond : 
>= 8 km
>= 3000ft
5 à 8 km
1000 à 3000 ft
1500m à 5 km
500 à 1000 ft
800 à 1500m
200 à 500 ft
< 800m
< 200 ft
Symboles :   Orages  Brouillard  Fortes neiges  Fortes précipitations  Vent > 20 kt






- Altitude de l'aérodrome : 1382 ft


KIWA - Phoenix-Mesa-Gateway

DERNIER METAR :
  • 211555Z 10007KT 10SM -RA SCT035 BKN060 OVC070 12/10 A2990

METARs EXPIRÉS :
  • 211455Z 09009KT 10SM SCT035 BKN060 OVC070 11/10 A2988
  • 211350Z 24010KT 10SM RA SCT035 BKN060 OVC070 11/09 A2987
  • 211250Z 12007KT 4SM VCTS SCT008 SCT018 BKN050 12/11 A2985 RMK LTG N/ TSB50

TAF KIWA
Valide du 21 à 13h jusqu'au 22 à 12h UTC


211239Z 2113/2212 14006KT P6SM RA SCT030 BKN050
FM211800 24010G18KT P6SM VCSH SCT040 BKN060
FM220200 01005KT P6SM SCT045 BKN080



MET'MAP, la Météo Aéronautique d'un coup d'oeil ! - Copyright ORBIFLY Décembre 2007 - Disclaimer

ORBIFLY MET'MAP TEAM :

Programmation & Développement : Alexandra Zaïnal
Conception & Développement : Baudouin d'Aumeries
Co-Programmation & Développement : Marc-Olivier Méhu
Soutien technique & logistique : Manuel Goepfert

Contact : metmap@orbifly.com




SOURCES & CREDITS :

   NOAA       Earth
Advisory